sensor_id;sensor_type;location;lat;lon;timestamp;temperature;humidity
34766;DHT22;20984;43.508;1.504;2024-03-29T00:01:47;12.30;99.90
34766;DHT22;20984;43.508;1.504;2024-03-29T00:04:12;12.30;99.90
34766;DHT22;20984;43.508;1.504;2024-03-29T00:06:38;12.30;99.90
34766;DHT22;20984;43.508;1.504;2024-03-29T00:09:03;12.30;99.90
34766;DHT22;20984;43.508;1.504;2024-03-29T00:11:29;12.30;99.90
34766;DHT22;20984;43.508;1.504;2024-03-29T00:13:56;12.40;99.90
34766;DHT22;20984;43.508;1.504;2024-03-29T00:16:22;12.40;99.90
34766;DHT22;20984;43.508;1.504;2024-03-29T00:18:51;12.50;99.90
34766;DHT22;20984;43.508;1.504;2024-03-29T00:21:16;12.50;99.90
34766;DHT22;20984;43.508;1.504;2024-03-29T00:23:42;12.50;99.90
34766;DHT22;20984;43.508;1.504;2024-03-29T00:26:09;12.50;99.90
34766;DHT22;20984;43.508;1.504;2024-03-29T00:28:34;12.50;99.90
34766;DHT22;20984;43.508;1.504;2024-03-29T00:31:00;12.50;99.90
34766;DHT22;20984;43.508;1.504;2024-03-29T00:33:25;12.50;99.90
34766;DHT22;20984;43.508;1.504;2024-03-29T00:35:51;12.60;99.90
34766;DHT22;20984;43.508;1.504;2024-03-29T00:38:16;12.70;99.90
34766;DHT22;20984;43.508;1.504;2024-03-29T00:40:42;12.70;99.90
34766;DHT22;20984;43.508;1.504;2024-03-29T00:43:07;12.70;99.90
34766;DHT22;20984;43.508;1.504;2024-03-29T00:45:33;12.70;99.90
34766;DHT22;20984;43.508;1.504;2024-03-29T00:47:59;12.70;99.90
34766;DHT22;20984;43.508;1.504;2024-03-29T00:50:24;12.70;99.90
34766;DHT22;20984;43.508;1.504;2024-03-29T00:55:53;12.70;99.90
34766;DHT22;20984;43.508;1.504;2024-03-29T00:58:18;12.70;99.90
34766;DHT22;20984;43.508;1.504;2024-03-29T01:00:45;12.70;99.90
34766;DHT22;20984;43.508;1.504;2024-03-29T01:03:12;12.70;99.90
34766;DHT22;20984;43.508;1.504;2024-03-29T01:05:37;12.60;99.90
34766;DHT22;20984;43.508;1.504;2024-03-29T01:08:05;12.60;99.90
34766;DHT22;20984;43.508;1.504;2024-03-29T01:10:30;12.60;99.90
34766;DHT22;20984;43.508;1.504;2024-03-29T01:12:56;12.60;99.90
34766;DHT22;20984;43.508;1.504;2024-03-29T01:15:22;12.60;99.90
34766;DHT22;20984;43.508;1.504;2024-03-29T01:17:48;12.60;99.90
34766;DHT22;20984;43.508;1.504;2024-03-29T01:20:13;12.60;99.90
34766;DHT22;20984;43.508;1.504;2024-03-29T01:22:39;12.60;99.90
34766;DHT22;20984;43.508;1.504;2024-03-29T01:25:04;12.70;99.90
34766;DHT22;20984;43.508;1.504;2024-03-29T01:27:33;12.60;99.90
34766;DHT22;20984;43.508;1.504;2024-03-29T01:29:59;12.70;99.90
34766;DHT22;20984;43.508;1.504;2024-03-29T01:32:25;12.70;99.90
34766;DHT22;20984;43.508;1.504;2024-03-29T01:34:50;12.70;99.90
34766;DHT22;20984;43.508;1.504;2024-03-29T01:37:17;12.80;99.90
34766;DHT22;20984;43.508;1.504;2024-03-29T01:39:43;12.80;99.90
34766;DHT22;20984;43.508;1.504;2024-03-29T01:42:08;12.80;99.90
34766;DHT22;20984;43.508;1.504;2024-03-29T01:44:34;12.80;99.90
34766;DHT22;20984;43.508;1.504;2024-03-29T01:47:01;12.80;99.90
34766;DHT22;20984;43.508;1.504;2024-03-29T01:49:26;12.80;99.90
34766;DHT22;20984;43.508;1.504;2024-03-29T01:51:52;12.80;99.90
34766;DHT22;20984;43.508;1.504;2024-03-29T01:54:18;12.80;99.90
34766;DHT22;20984;43.508;1.504;2024-03-29T01:56:43;12.90;99.90
34766;DHT22;20984;43.508;1.504;2024-03-29T01:59:12;12.90;99.90
34766;DHT22;20984;43.508;1.504;2024-03-29T02:01:39;12.90;99.90
34766;DHT22;20984;43.508;1.504;2024-03-29T02:04:05;12.80;99.90
34766;DHT22;20984;43.508;1.504;2024-03-29T02:06:31;12.80;99.90
34766;DHT22;20984;43.508;1.504;2024-03-29T02:08:58;12.90;99.90
34766;DHT22;20984;43.508;1.504;2024-03-29T02:11:24;12.90;99.90
34766;DHT22;20984;43.508;1.504;2024-03-29T02:13:50;12.90;99.90
34766;DHT22;20984;43.508;1.504;2024-03-29T02:16:15;12.90;99.90
34766;DHT22;20984;43.508;1.504;2024-03-29T02:18:44;12.90;99.90
34766;DHT22;20984;43.508;1.504;2024-03-29T02:21:09;12.90;99.90
34766;DHT22;20984;43.508;1.504;2024-03-29T02:23:36;12.90;99.90
34766;DHT22;20984;43.508;1.504;2024-03-29T02:26:03;12.90;99.90
34766;DHT22;20984;43.508;1.504;2024-03-29T02:28:29;12.90;99.90
34766;DHT22;20984;43.508;1.504;2024-03-29T02:30:56;12.90;99.90
34766;DHT22;20984;43.508;1.504;2024-03-29T02:33:22;12.90;99.90
34766;DHT22;20984;43.508;1.504;2024-03-29T02:35:48;12.80;99.90
34766;DHT22;20984;43.508;1.504;2024-03-29T02:38:14;12.80;99.90
34766;DHT22;20984;43.508;1.504;2024-03-29T02:40:40;12.70;99.90
34766;DHT22;20984;43.508;1.504;2024-03-29T02:43:06;12.70;99.90
34766;DHT22;20984;43.508;1.504;2024-03-29T02:45:33;12.70;99.90
34766;DHT22;20984;43.508;1.504;2024-03-29T02:48:00;12.60;99.90
34766;DHT22;20984;43.508;1.504;2024-03-29T02:50:26;12.60;99.90
34766;DHT22;20984;43.508;1.504;2024-03-29T02:52:51;12.70;99.90
34766;DHT22;20984;43.508;1.504;2024-03-29T02:55:17;12.60;99.90
34766;DHT22;20984;43.508;1.504;2024-03-29T02:57:43;12.70;99.90
34766;DHT22;20984;43.508;1.504;2024-03-29T03:00:08;12.70;99.90
34766;DHT22;20984;43.508;1.504;2024-03-29T03:02:38;12.70;99.90
34766;DHT22;20984;43.508;1.504;2024-03-29T03:05:04;12.70;99.90
34766;DHT22;20984;43.508;1.504;2024-03-29T03:07:31;12.70;99.90
34766;DHT22;20984;43.508;1.504;2024-03-29T03:10:15;12.60;99.90
34766;DHT22;20984;43.508;1.504;2024-03-29T03:13:00;12.60;99.90
34766;DHT22;20984;43.508;1.504;2024-03-29T03:15:27;12.60;99.90
34766;DHT22;20984;43.508;1.504;2024-03-29T03:17:52;12.60;99.90
34766;DHT22;20984;43.508;1.504;2024-03-29T03:20:18;12.60;99.90
34766;DHT22;20984;43.508;1.504;2024-03-29T03:22:44;12.60;99.90
34766;DHT22;20984;43.508;1.504;2024-03-29T03:25:10;12.50;99.90
34766;DHT22;20984;43.508;1.504;2024-03-29T03:27:35;12.50;99.90
34766;DHT22;20984;43.508;1.504;2024-03-29T03:30:01;12.50;99.90
34766;DHT22;20984;43.508;1.504;2024-03-29T03:32:27;12.50;99.90
34766;DHT22;20984;43.508;1.504;2024-03-29T03:34:53;12.50;99.90
34766;DHT22;20984;43.508;1.504;2024-03-29T03:37:18;12.60;99.90
34766;DHT22;20984;43.508;1.504;2024-03-29T03:39:43;12.60;99.90
34766;DHT22;20984;43.508;1.504;2024-03-29T03:42:09;12.50;99.90
34766;DHT22;20984;43.508;1.504;2024-03-29T03:44:34;12.40;99.90
34766;DHT22;20984;43.508;1.504;2024-03-29T03:47:01;12.30;99.90
34766;DHT22;20984;43.508;1.504;2024-03-29T03:49:26;12.30;99.90
34766;DHT22;20984;43.508;1.504;2024-03-29T03:51:52;12.10;99.90
34766;DHT22;20984;43.508;1.504;2024-03-29T03:54:17;12.00;99.90
34766;DHT22;20984;43.508;1.504;2024-03-29T03:56:43;11.90;99.90
34766;DHT22;20984;43.508;1.504;2024-03-29T03:59:08;11.80;99.90
34766;DHT22;20984;43.508;1.504;2024-03-29T04:01:34;12.00;99.90
34766;DHT22;20984;43.508;1.504;2024-03-29T04:04:00;11.90;99.90
34766;DHT22;20984;43.508;1.504;2024-03-29T04:06:25;11.90;99.90
34766;DHT22;20984;43.508;1.504;2024-03-29T04:08:50;11.80;99.90
34766;DHT22;20984;43.508;1.504;2024-03-29T04:11:16;11.70;99.90
34766;DHT22;20984;43.508;1.504;2024-03-29T04:13:42;11.70;99.90
34766;DHT22;20984;43.508;1.504;2024-03-29T04:16:08;11.60;99.90
34766;DHT22;20984;43.508;1.504;2024-03-29T04:18:33;11.50;99.90
34766;DHT22;20984;43.508;1.504;2024-03-29T04:20:59;11.40;99.90
34766;DHT22;20984;43.508;1.504;2024-03-29T04:23:25;11.30;99.90
34766;DHT22;20984;43.508;1.504;2024-03-29T04:25:52;11.20;99.90
34766;DHT22;20984;43.508;1.504;2024-03-29T04:28:17;11.20;99.90
34766;DHT22;20984;43.508;1.504;2024-03-29T04:30:50;11.10;99.90
34766;DHT22;20984;43.508;1.504;2024-03-29T04:33:15;11.10;99.90
34766;DHT22;20984;43.508;1.504;2024-03-29T04:35:41;11.10;99.90
34766;DHT22;20984;43.508;1.504;2024-03-29T04:38:06;11.00;99.90
34766;DHT22;20984;43.508;1.504;2024-03-29T04:40:31;11.00;99.90
34766;DHT22;20984;43.508;1.504;2024-03-29T04:42:57;11.10;99.90
34766;DHT22;20984;43.508;1.504;2024-03-29T04:45:22;11.00;99.90
34766;DHT22;20984;43.508;1.504;2024-03-29T04:47:48;11.00;99.90
34766;DHT22;20984;43.508;1.504;2024-03-29T04:50:14;11.00;99.90
34766;DHT22;20984;43.508;1.504;2024-03-29T04:52:39;11.10;99.90
34766;DHT22;20984;43.508;1.504;2024-03-29T04:55:05;11.00;99.90
34766;DHT22;20984;43.508;1.504;2024-03-29T04:57:30;10.90;99.90
34766;DHT22;20984;43.508;1.504;2024-03-29T04:59:56;10.80;99.90
34766;DHT22;20984;43.508;1.504;2024-03-29T05:02:21;10.80;99.90
34766;DHT22;20984;43.508;1.504;2024-03-29T05:04:47;10.70;99.90
34766;DHT22;20984;43.508;1.504;2024-03-29T05:07:13;10.70;99.90
34766;DHT22;20984;43.508;1.504;2024-03-29T05:09:38;10.60;99.90
34766;DHT22;20984;43.508;1.504;2024-03-29T05:12:04;10.50;99.90
34766;DHT22;20984;43.508;1.504;2024-03-29T05:14:29;10.40;99.90
34766;DHT22;20984;43.508;1.504;2024-03-29T05:16:55;10.50;99.90
34766;DHT22;20984;43.508;1.504;2024-03-29T05:19:20;10.50;99.90
34766;DHT22;20984;43.508;1.504;2024-03-29T05:21:46;10.60;99.90
34766;DHT22;20984;43.508;1.504;2024-03-29T05:24:12;10.70;99.90
34766;DHT22;20984;43.508;1.504;2024-03-29T05:26:37;10.70;99.90
34766;DHT22;20984;43.508;1.504;2024-03-29T05:29:03;10.70;99.90
34766;DHT22;20984;43.508;1.504;2024-03-29T05:31:29;10.70;99.90
34766;DHT22;20984;43.508;1.504;2024-03-29T05:33:54;10.70;99.90
34766;DHT22;20984;43.508;1.504;2024-03-29T05:36:20;10.70;99.90
34766;DHT22;20984;43.508;1.504;2024-03-29T05:38:46;10.60;99.90
34766;DHT22;20984;43.508;1.504;2024-03-29T05:41:11;10.60;99.90
34766;DHT22;20984;43.508;1.504;2024-03-29T05:43:38;10.70;99.90
34766;DHT22;20984;43.508;1.504;2024-03-29T05:46:03;10.60;99.90
34766;DHT22;20984;43.508;1.504;2024-03-29T05:48:29;10.60;99.90
34766;DHT22;20984;43.508;1.504;2024-03-29T05:50:55;10.50;99.90
34766;DHT22;20984;43.508;1.504;2024-03-29T05:53:20;10.40;99.90
34766;DHT22;20984;43.508;1.504;2024-03-29T05:55:46;10.40;99.90
34766;DHT22;20984;43.508;1.504;2024-03-29T05:58:11;10.40;99.90
34766;DHT22;20984;43.508;1.504;2024-03-29T06:00:42;10.40;99.90
34766;DHT22;20984;43.508;1.504;2024-03-29T06:03:07;10.30;99.90
34766;DHT22;20984;43.508;1.504;2024-03-29T06:05:33;10.30;99.90
34766;DHT22;20984;43.508;1.504;2024-03-29T06:07:58;10.20;99.90
34766;DHT22;20984;43.508;1.504;2024-03-29T06:10:24;10.20;99.90
34766;DHT22;20984;43.508;1.504;2024-03-29T06:12:49;10.30;99.90
34766;DHT22;20984;43.508;1.504;2024-03-29T06:15:15;10.30;99.90
34766;DHT22;20984;43.508;1.504;2024-03-29T06:18:00;10.40;99.90
34766;DHT22;20984;43.508;1.504;2024-03-29T06:20:25;10.40;99.90
34766;DHT22;20984;43.508;1.504;2024-03-29T06:22:51;10.50;99.90
34766;DHT22;20984;43.508;1.504;2024-03-29T06:25:16;10.60;99.90
34766;DHT22;20984;43.508;1.504;2024-03-29T06:27:42;10.60;99.90
34766;DHT22;20984;43.508;1.504;2024-03-29T06:30:13;10.70;99.90
34766;DHT22;20984;43.508;1.504;2024-03-29T06:32:39;10.80;99.90
34766;DHT22;20984;43.508;1.504;2024-03-29T06:35:04;10.90;99.90
34766;DHT22;20984;43.508;1.504;2024-03-29T06:37:31;11.00;99.90
34766;DHT22;20984;43.508;1.504;2024-03-29T06:39:56;11.10;99.90
34766;DHT22;20984;43.508;1.504;2024-03-29T06:42:22;11.20;99.90
34766;DHT22;20984;43.508;1.504;2024-03-29T06:44:47;11.30;99.90
34766;DHT22;20984;43.508;1.504;2024-03-29T06:47:13;11.40;99.90
34766;DHT22;20984;43.508;1.504;2024-03-29T06:49:38;11.50;99.90
34766;DHT22;20984;43.508;1.504;2024-03-29T06:52:04;11.60;99.90
34766;DHT22;20984;43.508;1.504;2024-03-29T06:54:30;11.80;99.90
34766;DHT22;20984;43.508;1.504;2024-03-29T06:56:56;12.00;99.90
34766;DHT22;20984;43.508;1.504;2024-03-29T06:59:22;12.10;99.90
34766;DHT22;20984;43.508;1.504;2024-03-29T07:01:48;12.40;99.90
34766;DHT22;20984;43.508;1.504;2024-03-29T07:04:24;12.60;99.90
34766;DHT22;20984;43.508;1.504;2024-03-29T07:06:50;12.90;99.90
34766;DHT22;20984;43.508;1.504;2024-03-29T07:09:19;13.00;99.90
34766;DHT22;20984;43.508;1.504;2024-03-29T07:11:45;13.20;99.90
34766;DHT22;20984;43.508;1.504;2024-03-29T07:14:12;13.40;99.90
34766;DHT22;20984;43.508;1.504;2024-03-29T07:16:37;13.40;99.90
34766;DHT22;20984;43.508;1.504;2024-03-29T07:19:03;13.40;99.90
34766;DHT22;20984;43.508;1.504;2024-03-29T07:21:28;13.40;99.90
34766;DHT22;20984;43.508;1.504;2024-03-29T07:23:54;13.50;99.90
34766;DHT22;20984;43.508;1.504;2024-03-29T07:26:19;13.50;99.90
34766;DHT22;20984;43.508;1.504;2024-03-29T07:28:45;13.50;99.90
34766;DHT22;20984;43.508;1.504;2024-03-29T07:31:10;13.60;99.90
34766;DHT22;20984;43.508;1.504;2024-03-29T07:33:36;13.60;99.90
34766;DHT22;20984;43.508;1.504;2024-03-29T07:36:02;13.60;99.90
34766;DHT22;20984;43.508;1.504;2024-03-29T07:38:28;13.50;99.90
34766;DHT22;20984;43.508;1.504;2024-03-29T07:40:54;13.50;99.90
34766;DHT22;20984;43.508;1.504;2024-03-29T07:43:20;13.50;99.90
34766;DHT22;20984;43.508;1.504;2024-03-29T07:45:46;13.50;99.90
34766;DHT22;20984;43.508;1.504;2024-03-29T07:48:13;13.50;99.90
34766;DHT22;20984;43.508;1.504;2024-03-29T07:50:39;13.50;99.90
34766;DHT22;20984;43.508;1.504;2024-03-29T07:53:04;13.40;99.90
34766;DHT22;20984;43.508;1.504;2024-03-29T07:55:30;13.40;99.90
34766;DHT22;20984;43.508;1.504;2024-03-29T07:57:56;13.40;99.90
34766;DHT22;20984;43.508;1.504;2024-03-29T08:00:21;13.30;99.90
34766;DHT22;20984;43.508;1.504;2024-03-29T08:02:47;13.30;99.90
34766;DHT22;20984;43.508;1.504;2024-03-29T08:05:13;13.30;99.90
34766;DHT22;20984;43.508;1.504;2024-03-29T08:07:38;13.30;99.90
34766;DHT22;20984;43.508;1.504;2024-03-29T08:10:04;13.20;99.90
34766;DHT22;20984;43.508;1.504;2024-03-29T08:12:31;13.20;99.90
34766;DHT22;20984;43.508;1.504;2024-03-29T08:14:58;13.20;99.90
34766;DHT22;20984;43.508;1.504;2024-03-29T08:17:23;13.20;99.90
34766;DHT22;20984;43.508;1.504;2024-03-29T08:19:49;13.20;99.90
34766;DHT22;20984;43.508;1.504;2024-03-29T08:22:14;13.30;99.90
34766;DHT22;20984;43.508;1.504;2024-03-29T08:24:41;13.40;99.90
34766;DHT22;20984;43.508;1.504;2024-03-29T08:27:06;13.60;99.90
34766;DHT22;20984;43.508;1.504;2024-03-29T08:29:32;13.70;99.90
34766;DHT22;20984;43.508;1.504;2024-03-29T08:31:57;13.70;99.90
34766;DHT22;20984;43.508;1.504;2024-03-29T08:34:23;13.90;99.90
34766;DHT22;20984;43.508;1.504;2024-03-29T08:36:48;14.00;99.90
34766;DHT22;20984;43.508;1.504;2024-03-29T08:39:14;14.10;99.90
34766;DHT22;20984;43.508;1.504;2024-03-29T08:41:42;14.20;99.90
34766;DHT22;20984;43.508;1.504;2024-03-29T08:44:07;14.30;99.90
34766;DHT22;20984;43.508;1.504;2024-03-29T08:46:33;14.40;99.90
34766;DHT22;20984;43.508;1.504;2024-03-29T08:48:58;14.40;99.90
34766;DHT22;20984;43.508;1.504;2024-03-29T08:51:24;14.60;99.90
34766;DHT22;20984;43.508;1.504;2024-03-29T08:53:49;14.70;99.90
34766;DHT22;20984;43.508;1.504;2024-03-29T08:56:15;14.90;99.90
34766;DHT22;20984;43.508;1.504;2024-03-29T08:58:40;14.90;99.90
34766;DHT22;20984;43.508;1.504;2024-03-29T09:01:06;14.90;99.90
34766;DHT22;20984;43.508;1.504;2024-03-29T09:03:32;14.80;99.90
34766;DHT22;20984;43.508;1.504;2024-03-29T09:05:57;14.90;99.90
34766;DHT22;20984;43.508;1.504;2024-03-29T09:08:23;14.90;99.90
34766;DHT22;20984;43.508;1.504;2024-03-29T09:10:48;15.00;99.90
34766;DHT22;20984;43.508;1.504;2024-03-29T09:13:14;15.00;99.90
34766;DHT22;20984;43.508;1.504;2024-03-29T09:15:39;15.10;99.90
34766;DHT22;20984;43.508;1.504;2024-03-29T09:18:05;15.20;99.90
34766;DHT22;20984;43.508;1.504;2024-03-29T09:20:44;15.40;99.90
34766;DHT22;20984;43.508;1.504;2024-03-29T09:23:10;15.70;99.90
34766;DHT22;20984;43.508;1.504;2024-03-29T09:25:39;15.70;99.90
34766;DHT22;20984;43.508;1.504;2024-03-29T09:28:05;15.80;99.90
34766;DHT22;20984;43.508;1.504;2024-03-29T09:30:30;15.90;99.90
34766;DHT22;20984;43.508;1.504;2024-03-29T09:32:56;15.90;99.90
34766;DHT22;20984;43.508;1.504;2024-03-29T09:35:21;16.10;99.90
34766;DHT22;20984;43.508;1.504;2024-03-29T09:37:47;16.20;99.90
34766;DHT22;20984;43.508;1.504;2024-03-29T09:40:13;16.30;99.90
34766;DHT22;20984;43.508;1.504;2024-03-29T09:42:38;16.50;99.90
34766;DHT22;20984;43.508;1.504;2024-03-29T09:45:04;16.70;99.90
34766;DHT22;20984;43.508;1.504;2024-03-29T09:47:31;16.80;99.90
34766;DHT22;20984;43.508;1.504;2024-03-29T09:49:56;16.80;99.90
34766;DHT22;20984;43.508;1.504;2024-03-29T09:52:24;16.80;99.90
34766;DHT22;20984;43.508;1.504;2024-03-29T09:54:49;16.90;99.90
34766;DHT22;20984;43.508;1.504;2024-03-29T09:57:15;17.00;99.90
34766;DHT22;20984;43.508;1.504;2024-03-29T09:59:42;17.20;99.90
34766;DHT22;20984;43.508;1.504;2024-03-29T10:02:14;17.50;99.90
34766;DHT22;20984;43.508;1.504;2024-03-29T10:04:50;17.60;99.90
34766;DHT22;20984;43.508;1.504;2024-03-29T10:07:16;17.80;99.90
34766;DHT22;20984;43.508;1.504;2024-03-29T10:09:42;17.80;99.90
34766;DHT22;20984;43.508;1.504;2024-03-29T10:12:09;17.90;99.90
34766;DHT22;20984;43.508;1.504;2024-03-29T10:14:45;18.00;99.90
34766;DHT22;20984;43.508;1.504;2024-03-29T10:17:15;18.20;99.90
34766;DHT22;20984;43.508;1.504;2024-03-29T10:19:40;18.20;99.90
34766;DHT22;20984;43.508;1.504;2024-03-29T10:22:06;18.40;99.90
34766;DHT22;20984;43.508;1.504;2024-03-29T10:24:33;18.40;99.90
34766;DHT22;20984;43.508;1.504;2024-03-29T10:26:59;18.50;99.90
34766;DHT22;20984;43.508;1.504;2024-03-29T10:29:27;18.60;99.90
34766;DHT22;20984;43.508;1.504;2024-03-29T10:31:54;18.60;99.90
34766;DHT22;20984;43.508;1.504;2024-03-29T10:34:21;18.60;99.90
34766;DHT22;20984;43.508;1.504;2024-03-29T10:36:46;18.60;99.90
34766;DHT22;20984;43.508;1.504;2024-03-29T10:39:12;18.70;99.90
34766;DHT22;20984;43.508;1.504;2024-03-29T10:41:39;18.60;99.90
34766;DHT22;20984;43.508;1.504;2024-03-29T10:44:05;18.50;99.90
34766;DHT22;20984;43.508;1.504;2024-03-29T10:46:32;18.70;99.90
34766;DHT22;20984;43.508;1.504;2024-03-29T10:48:58;19.00;99.90
34766;DHT22;20984;43.508;1.504;2024-03-29T10:51:23;19.20;99.90
34766;DHT22;20984;43.508;1.504;2024-03-29T10:53:49;19.00;99.90
34766;DHT22;20984;43.508;1.504;2024-03-29T10:56:15;19.10;99.90
34766;DHT22;20984;43.508;1.504;2024-03-29T10:58:41;19.50;99.90
34766;DHT22;20984;43.508;1.504;2024-03-29T11:01:10;19.80;99.90
34766;DHT22;20984;43.508;1.504;2024-03-29T11:03:38;20.00;99.90
34766;DHT22;20984;43.508;1.504;2024-03-29T11:06:06;19.90;99.90
34766;DHT22;20984;43.508;1.504;2024-03-29T11:08:32;19.90;99.90
34766;DHT22;20984;43.508;1.504;2024-03-29T11:11:00;20.10;99.90
34766;DHT22;20984;43.508;1.504;2024-03-29T11:16:10;20.00;99.90
34766;DHT22;20984;43.508;1.504;2024-03-29T11:18:36;20.10;99.90
34766;DHT22;20984;43.508;1.504;2024-03-29T11:21:03;20.10;99.90
34766;DHT22;20984;43.508;1.504;2024-03-29T11:23:31;20.10;99.90
34766;DHT22;20984;43.508;1.504;2024-03-29T11:25:57;20.10;99.90
34766;DHT22;20984;43.508;1.504;2024-03-29T11:28:33;20.20;99.90
34766;DHT22;20984;43.508;1.504;2024-03-29T11:33:35;19.90;99.90
34766;DHT22;20984;43.508;1.504;2024-03-29T11:38:39;19.80;99.90
34766;DHT22;20984;43.508;1.504;2024-03-29T11:41:07;19.70;99.90
34766;DHT22;20984;43.508;1.504;2024-03-29T11:43:33;19.70;99.90
34766;DHT22;20984;43.508;1.504;2024-03-29T11:45:59;19.90;99.90
34766;DHT22;20984;43.508;1.504;2024-03-29T11:48:26;20.10;99.90
34766;DHT22;20984;43.508;1.504;2024-03-29T11:50:52;20.10;99.90
34766;DHT22;20984;43.508;1.504;2024-03-29T11:53:18;19.90;99.90
34766;DHT22;20984;43.508;1.504;2024-03-29T11:55:44;19.90;99.90
34766;DHT22;20984;43.508;1.504;2024-03-29T11:58:09;20.10;99.90
34766;DHT22;20984;43.508;1.504;2024-03-29T12:00:35;20.10;99.90
34766;DHT22;20984;43.508;1.504;2024-03-29T12:03:01;20.10;99.90
34766;DHT22;20984;43.508;1.504;2024-03-29T12:05:27;20.40;99.90
34766;DHT22;20984;43.508;1.504;2024-03-29T12:07:53;20.50;99.90
34766;DHT22;20984;43.508;1.504;2024-03-29T12:10:19;20.30;99.90
34766;DHT22;20984;43.508;1.504;2024-03-29T12:12:44;20.40;99.90
34766;DHT22;20984;43.508;1.504;2024-03-29T12:15:10;20.60;99.90
34766;DHT22;20984;43.508;1.504;2024-03-29T12:17:37;20.60;99.90
34766;DHT22;20984;43.508;1.504;2024-03-29T12:20:04;20.50;99.90
34766;DHT22;20984;43.508;1.504;2024-03-29T12:22:37;20.60;99.90
34766;DHT22;20984;43.508;1.504;2024-03-29T12:25:02;20.70;99.90
34766;DHT22;20984;43.508;1.504;2024-03-29T12:27:28;20.90;99.90
34766;DHT22;20984;43.508;1.504;2024-03-29T12:29:55;20.60;99.90
34766;DHT22;20984;43.508;1.504;2024-03-29T12:32:20;20.80;99.90
34766;DHT22;20984;43.508;1.504;2024-03-29T12:34:46;20.90;99.90
34766;DHT22;20984;43.508;1.504;2024-03-29T12:37:12;21.10;99.90
34766;DHT22;20984;43.508;1.504;2024-03-29T12:39:40;21.20;99.90
34766;DHT22;20984;43.508;1.504;2024-03-29T12:42:07;21.20;99.90
34766;DHT22;20984;43.508;1.504;2024-03-29T12:44:32;21.20;99.90
34766;DHT22;20984;43.508;1.504;2024-03-29T12:46:59;21.20;99.90
34766;DHT22;20984;43.508;1.504;2024-03-29T12:49:25;21.20;99.90
34766;DHT22;20984;43.508;1.504;2024-03-29T12:51:51;20.90;99.90
34766;DHT22;20984;43.508;1.504;2024-03-29T12:54:16;20.90;99.90
34766;DHT22;20984;43.508;1.504;2024-03-29T12:56:44;21.20;99.90
34766;DHT22;20984;43.508;1.504;2024-03-29T12:59:10;21.40;99.90
34766;DHT22;20984;43.508;1.504;2024-03-29T13:01:35;21.40;99.90
34766;DHT22;20984;43.508;1.504;2024-03-29T13:04:01;21.60;99.90
34766;DHT22;20984;43.508;1.504;2024-03-29T13:06:26;21.60;99.90
34766;DHT22;20984;43.508;1.504;2024-03-29T13:08:52;21.90;99.90
34766;DHT22;20984;43.508;1.504;2024-03-29T13:11:19;22.00;99.90
34766;DHT22;20984;43.508;1.504;2024-03-29T13:13:44;21.80;99.90
34766;DHT22;20984;43.508;1.504;2024-03-29T13:16:10;21.80;99.90
34766;DHT22;20984;43.508;1.504;2024-03-29T13:18:35;21.90;99.90
34766;DHT22;20984;43.508;1.504;2024-03-29T13:21:01;21.80;99.90
34766;DHT22;20984;43.508;1.504;2024-03-29T13:23:28;21.70;99.90
34766;DHT22;20984;43.508;1.504;2024-03-29T13:25:53;21.90;99.90
34766;DHT22;20984;43.508;1.504;2024-03-29T13:28:21;21.70;99.90
34766;DHT22;20984;43.508;1.504;2024-03-29T13:30:47;21.90;99.90
34766;DHT22;20984;43.508;1.504;2024-03-29T13:33:15;21.90;99.90
34766;DHT22;20984;43.508;1.504;2024-03-29T13:35:42;21.80;99.90
34766;DHT22;20984;43.508;1.504;2024-03-29T13:38:07;21.70;99.90
34766;DHT22;20984;43.508;1.504;2024-03-29T13:40:33;21.60;99.90
34766;DHT22;20984;43.508;1.504;2024-03-29T13:42:59;21.50;99.90
34766;DHT22;20984;43.508;1.504;2024-03-29T13:45:25;21.50;99.90
34766;DHT22;20984;43.508;1.504;2024-03-29T13:47:54;21.60;99.90
34766;DHT22;20984;43.508;1.504;2024-03-29T13:50:20;21.70;99.90
34766;DHT22;20984;43.508;1.504;2024-03-29T13:52:46;21.60;99.90
34766;DHT22;20984;43.508;1.504;2024-03-29T13:55:12;21.80;99.90
34766;DHT22;20984;43.508;1.504;2024-03-29T13:57:37;22.10;99.90
34766;DHT22;20984;43.508;1.504;2024-03-29T14:00:03;22.40;99.90
34766;DHT22;20984;43.508;1.504;2024-03-29T14:02:31;22.20;99.90
34766;DHT22;20984;43.508;1.504;2024-03-29T14:04:56;22.10;99.90
34766;DHT22;20984;43.508;1.504;2024-03-29T14:07:23;21.90;99.90
34766;DHT22;20984;43.508;1.504;2024-03-29T14:09:52;21.70;99.90
34766;DHT22;20984;43.508;1.504;2024-03-29T14:12:17;21.70;99.90
34766;DHT22;20984;43.508;1.504;2024-03-29T14:14:51;22.00;99.90
34766;DHT22;20984;43.508;1.504;2024-03-29T14:17:18;22.10;99.90
34766;DHT22;20984;43.508;1.504;2024-03-29T14:19:43;22.30;99.90
34766;DHT22;20984;43.508;1.504;2024-03-29T14:22:09;22.20;99.90
34766;DHT22;20984;43.508;1.504;2024-03-29T14:24:35;21.80;99.90
34766;DHT22;20984;43.508;1.504;2024-03-29T14:27:01;21.40;99.90
34766;DHT22;20984;43.508;1.504;2024-03-29T14:29:28;21.50;99.90
34766;DHT22;20984;43.508;1.504;2024-03-29T14:31:54;21.80;99.90
34766;DHT22;20984;43.508;1.504;2024-03-29T14:34:20;21.50;99.90
34766;DHT22;20984;43.508;1.504;2024-03-29T14:36:45;21.10;99.90
34766;DHT22;20984;43.508;1.504;2024-03-29T14:39:11;20.60;99.90
34766;DHT22;20984;43.508;1.504;2024-03-29T14:41:41;20.30;99.90
34766;DHT22;20984;43.508;1.504;2024-03-29T14:44:07;20.20;99.90
34766;DHT22;20984;43.508;1.504;2024-03-29T14:46:33;19.90;99.90
34766;DHT22;20984;43.508;1.504;2024-03-29T14:48:59;19.80;99.90
34766;DHT22;20984;43.508;1.504;2024-03-29T14:51:25;19.50;99.90
34766;DHT22;20984;43.508;1.504;2024-03-29T14:53:50;19.10;99.90
34766;DHT22;20984;43.508;1.504;2024-03-29T14:56:16;19.00;99.90
34766;DHT22;20984;43.508;1.504;2024-03-29T14:58:42;18.90;99.90
34766;DHT22;20984;43.508;1.504;2024-03-29T15:01:07;19.00;99.90
34766;DHT22;20984;43.508;1.504;2024-03-29T15:03:33;19.40;99.90
34766;DHT22;20984;43.508;1.504;2024-03-29T15:05:58;19.50;99.90
34766;DHT22;20984;43.508;1.504;2024-03-29T15:08:24;19.80;99.90
34766;DHT22;20984;43.508;1.504;2024-03-29T15:10:56;20.50;99.90
34766;DHT22;20984;43.508;1.504;2024-03-29T15:13:21;21.10;99.90
34766;DHT22;20984;43.508;1.504;2024-03-29T15:15:54;20.60;99.90
34766;DHT22;20984;43.508;1.504;2024-03-29T15:18:20;20.30;99.90
34766;DHT22;20984;43.508;1.504;2024-03-29T15:20:55;20.50;99.90
34766;DHT22;20984;43.508;1.504;2024-03-29T15:23:21;21.10;99.90
34766;DHT22;20984;43.508;1.504;2024-03-29T15:25:53;21.40;99.90
34766;DHT22;20984;43.508;1.504;2024-03-29T15:28:19;21.20;99.90
34766;DHT22;20984;43.508;1.504;2024-03-29T15:31:10;20.80;99.90
34766;DHT22;20984;43.508;1.504;2024-03-29T15:33:41;20.60;99.90
34766;DHT22;20984;43.508;1.504;2024-03-29T15:36:06;20.80;99.90